Time;durP1;ratioP1;P1;durP2;ratioP2;P2;SDS_P1;SDS_P2;PMS_P1;PMS_P2;Temp;Humidity;BMP_temperature;BMP_pressure;BME280_temperature;BME280_humidity;BME280_pressure;Samples;Min_cycle;Max_cycle;Signal;HPM_P1;HPM_P2
2022/04/28 00:01:00;;;;;;;17.53;8.50;;;5.80;99.90;;;;;;5081629;28;20212;-79
2022/04/28 00:03:27;;;;;;;18.67;9.20;;;5.80;99.90;;;;;;5081492;28;20207;-79
2022/04/28 00:05:54;;;;;;;14.07;8.90;;;5.80;99.90;;;;;;5071081;28;20228;-80
2022/04/28 00:08:21;;;;;;;22.83;8.33;;;5.80;99.90;;;;;;5066895;28;20295;-79
2022/04/28 00:10:48;;;;;;;19.53;8.50;;;5.70;99.90;;;;;;5083378;28;20301;-79
2022/04/28 00:13:16;;;;;;;17.63;8.60;;;5.70;99.90;;;;;;5083799;28;20612;-79
2022/04/28 00:15:43;;;;;;;14.87;8.43;;;5.70;99.90;;;;;;5079822;28;20221;-80
2022/04/28 00:18:10;;;;;;;16.33;8.57;;;5.70;99.90;;;;;;5083766;28;20205;-79
2022/04/28 00:20:37;;;;;;;19.33;8.90;;;5.60;99.90;;;;;;5067018;28;20211;-78
2022/04/28 00:23:03;;;;;;;17.63;8.37;;;5.60;99.90;;;;;;5081536;28;20283;-78
2022/04/28 00:25:30;;;;;;;20.27;8.17;;;5.60;99.90;;;;;;5067667;28;20668;-78
2022/04/28 00:27:57;;;;;;;18.43;9.23;;;5.60;99.90;;;;;;5084462;28;20197;-79
2022/04/28 00:30:24;;;;;;;20.33;9.53;;;5.50;99.90;;;;;;5065921;28;20312;-79
2022/04/28 00:32:51;;;;;;;14.87;7.93;;;5.50;99.90;;;;;;5085562;28;20241;-80
2022/04/28 00:35:18;;;;;;;21.63;9.20;;;5.50;99.90;;;;;;5084332;28;20253;-79
2022/04/28 00:37:44;;;;;;;14.43;8.97;;;5.50;99.90;;;;;;5083077;28;20249;-78
2022/04/28 00:40:12;;;;;;;14.10;8.17;;;5.40;99.90;;;;;;5083111;28;20258;-78
2022/04/28 00:42:38;;;;;;;18.93;8.77;;;5.40;99.90;;;;;;5080264;28;20299;-79
2022/04/28 00:45:06;;;;;;;19.30;8.93;;;5.40;99.90;;;;;;5082634;28;20232;-79
2022/04/28 00:53:09;;;;;;;20.13;8.30;;;5.30;99.90;;;;;;5084037;28;20226;-80
2022/04/28 00:55:35;;;;;;;18.50;8.10;;;5.30;99.90;;;;;;5085338;28;20236;-79
2022/04/28 00:58:02;;;;;;;14.83;8.47;;;5.30;99.90;;;;;;5084447;28;20205;-79
2022/04/28 01:00:29;;;;;;;18.20;8.93;;;5.20;99.90;;;;;;5066313;28;20219;-80
2022/04/28 01:02:56;;;;;;;15.97;7.77;;;5.20;99.90;;;;;;5069320;28;20249;-79
2022/04/28 01:05:23;;;;;;;18.43;8.77;;;5.60;99.90;;;;;;5081796;28;20613;-79
2022/04/28 01:07:50;;;;;;;19.00;8.23;;;5.10;99.90;;;;;;5079331;28;20216;-78
2022/04/28 01:10:17;;;;;;;17.97;8.30;;;5.50;99.90;;;;;;5079900;28;20586;-78
2022/04/28 01:12:44;;;;;;;16.27;8.00;;;5.10;99.90;;;;;;5085329;28;21033;-78
2022/04/28 01:15:11;;;;;;;16.47;8.57;;;5.10;99.90;;;;;;5085455;28;20265;-79
2022/04/28 01:17:37;;;;;;;17.00;8.23;;;5.00;99.90;;;;;;5083206;28;20309;-78
2022/04/28 01:20:05;;;;;;;17.57;8.00;;;5.00;99.90;;;;;;5083882;28;20239;-79
2022/04/28 01:22:32;;;;;;;18.13;8.60;;;5.00;99.90;;;;;;5083572;28;20262;-79
2022/04/28 01:25:07;;;;;;;15.23;7.83;;;4.90;99.90;;;;;;5084281;28;20259;-78
2022/04/28 01:27:36;;;;;;;22.40;8.27;;;4.90;99.90;;;;;;5082097;28;20594;-79
2022/04/28 01:30:16;;;;;;;16.67;8.67;;;4.80;99.90;;;;;;5080522;28;20633;-79
2022/04/28 01:32:43;;;;;;;15.40;8.37;;;4.80;99.90;;;;;;5084671;28;20207;-80
2022/04/28 01:35:10;;;;;;;21.93;9.07;;;4.70;99.90;;;;;;5086101;28;20193;-77
2022/04/28 01:37:37;;;;;;;16.63;9.03;;;4.70;99.90;;;;;;5086647;28;20273;-80
2022/04/28 01:40:08;;;;;;;13.63;8.03;;;4.70;99.90;;;;;;5091131;28;20208;-77
2022/04/28 01:42:35;;;;;;;21.43;9.23;;;4.70;99.90;;;;;;5086433;28;20240;-78
2022/04/28 01:45:06;;;;;;;15.33;8.53;;;4.70;99.90;;;;;;5088933;28;20216;-78
2022/04/28 01:47:33;;;;;;;18.17;8.53;;;4.60;99.90;;;;;;5098834;28;20219;-78
2022/04/28 01:50:00;;;;;;;17.83;8.43;;;4.60;99.90;;;;;;5099934;28;20208;-78
2022/04/28 01:55:12;;;;;;;21.77;8.57;;;4.60;99.90;;;;;;5086350;28;20212;-79
2022/04/28 01:57:39;;;;;;;14.20;8.40;;;4.50;99.90;;;;;;5082063;28;20251;-77
2022/04/28 02:00:07;;;;;;;18.03;9.43;;;4.60;99.90;;;;;;5084161;28;20672;-79
2022/04/28 02:02:35;;;;;;;18.20;9.00;;;4.50;99.90;;;;;;5082125;28;20723;-80
2022/04/28 02:05:03;;;;;;;16.20;8.87;;;4.50;99.90;;;;;;5084900;28;20220;-79
2022/04/28 02:07:32;;;;;;;23.63;8.83;;;4.50;99.90;;;;;;5077857;28;20260;-78
2022/04/28 02:09:59;;;;;;;17.57;8.50;;;4.50;99.90;;;;;;5080850;28;20208;-79
2022/04/28 02:12:26;;;;;;;15.37;8.87;;;4.40;99.90;;;;;;5078918;28;20236;-79
2022/04/28 02:14:54;;;;;;;17.83;8.53;;;4.40;99.90;;;;;;5091236;28;20216;-78
2022/04/28 02:17:24;;;;;;;17.00;8.53;;;4.40;99.90;;;;;;5089173;28;20314;-79
2022/04/28 02:19:51;;;;;;;16.57;8.07;;;4.30;99.90;;;;;;5086689;28;20211;-79
2022/04/28 02:22:19;;;;;;;21.53;8.60;;;4.30;99.90;;;;;;5087040;28;20772;-78
2022/04/28 02:24:50;;;;;;;20.10;9.80;;;4.30;99.90;;;;;;5083153;28;20250;-79
2022/04/28 02:27:18;;;;;;;17.17;8.47;;;4.20;99.90;;;;;;5074856;28;20256;-79
2022/04/28 02:29:45;;;;;;;19.40;8.90;;;4.20;99.90;;;;;;5086150;28;20216;-79
2022/04/28 02:32:11;;;;;;;21.23;9.30;;;4.20;99.90;;;;;;5088522;28;20254;-79
2022/04/28 02:34:38;;;;;;;17.30;8.90;;;4.20;99.90;;;;;;5086075;28;20300;-77
2022/04/28 02:37:06;;;;;;;15.80;8.37;;;4.10;99.90;;;;;;5089571;28;20231;-80
2022/04/28 02:39:33;;;;;;;22.73;10.20;;;4.10;99.90;;;;;;5086887;28;20219;-79
2022/04/28 02:42:00;;;;;;;18.03;8.93;;;4.10;99.90;;;;;;5088590;28;20258;-78
2022/04/28 02:44:26;;;;;;;20.67;9.40;;;4.10;99.90;;;;;;5083915;28;20207;-79
2022/04/28 02:46:53;;;;;;;21.70;9.40;;;4.00;99.90;;;;;;5083902;28;20298;-78
2022/04/28 02:49:20;;;;;;;20.27;9.90;;;4.00;99.90;;;;;;5081992;28;20203;-81
2022/04/28 02:51:47;;;;;;;22.10;9.80;;;4.00;99.90;;;;;;5082369;28;20263;-79
2022/04/28 02:54:13;;;;;;;24.80;9.30;;;4.10;99.90;;;;;;5077398;28;20201;-80
2022/04/28 02:56:40;;;;;;;20.13;9.70;;;4.00;99.90;;;;;;5067185;28;20287;-79
2022/04/28 02:59:07;;;;;;;23.00;9.67;;;4.00;99.90;;;;;;5087955;28;20564;-79
2022/04/28 03:01:34;;;;;;;20.17;9.87;;;4.30;99.90;;;;;;5089744;28;20446;-81
2022/04/28 03:04:02;;;;;;;20.50;9.30;;;4.00;99.90;;;;;;5083546;28;20210;-78
2022/04/28 03:11:59;;;;;;;21.97;10.23;;;3.90;99.90;;;;;;5082520;28;20237;-80
2022/04/28 03:14:26;;;;;;;15.93;9.07;;;3.90;99.90;;;;;;5078285;28;20256;-79
2022/04/28 03:16:53;;;;;;;22.83;9.40;;;3.90;99.90;;;;;;5070950;28;20650;-81
2022/04/28 03:19:19;;;;;;;18.17;9.87;;;3.90;99.90;;;;;;5084641;28;20287;-78
2022/04/28 03:21:46;;;;;;;22.23;8.93;;;3.80;99.90;;;;;;5088434;28;20224;-78
2022/04/28 03:24:13;;;;;;;19.63;9.53;;;3.80;99.90;;;;;;5081872;28;20231;-79
2022/04/28 03:26:40;;;;;;;19.50;8.97;;;3.80;99.90;;;;;;5085752;28;20807;-80
2022/04/28 03:29:07;;;;;;;19.43;9.00;;;3.80;99.90;;;;;;5086067;28;20211;-77
2022/04/28 03:31:34;;;;;;;22.10;9.37;;;3.80;99.90;;;;;;5081212;28;20251;-79
2022/04/28 03:34:00;;;;;;;21.50;9.20;;;3.70;99.90;;;;;;5084433;28;20248;-78
2022/04/28 03:39:13;;;;;;;17.90;9.07;;;3.70;99.90;;;;;;5087173;28;20601;-79
2022/04/28 03:41:40;;;;;;;20.90;9.60;;;3.60;99.90;;;;;;5085962;28;20741;-78
2022/04/28 03:44:08;;;;;;;24.27;9.87;;;3.60;99.90;;;;;;5082741;28;20368;-78
2022/04/28 03:46:36;;;;;;;19.33;9.70;;;3.60;99.90;;;;;;5086541;28;20221;-81
2022/04/28 03:49:03;;;;;;;21.67;9.50;;;3.60;99.90;;;;;;5083327;28;20204;-79
2022/04/28 03:51:30;;;;;;;28.60;10.70;;;3.50;99.90;;;;;;5085237;28;20219;-78
2022/04/28 03:54:00;;;;;;;19.07;9.23;;;3.50;99.90;;;;;;5080726;28;20256;-78
2022/04/28 03:56:30;;;;;;;19.50;9.57;;;3.50;99.90;;;;;;5088453;28;20220;-79
2022/04/28 03:59:02;;;;;;;22.17;9.17;;;3.50;99.90;;;;;;5070418;28;20264;-79
2022/04/28 04:01:29;;;;;;;21.30;8.97;;;3.50;99.90;;;;;;5083890;28;20211;-78
2022/04/28 04:03:56;;;;;;;19.97;9.27;;;3.40;99.90;;;;;;5080045;28;20625;-80
2022/04/28 04:06:23;;;;;;;19.60;10.07;;;3.40;99.90;;;;;;5068709;28;20235;-79
2022/04/28 04:08:50;;;;;;;22.67;8.93;;;3.40;99.90;;;;;;5081144;28;20597;-80
2022/04/28 04:11:17;;;;;;;22.23;9.53;;;3.40;99.90;;;;;;5084523;28;20250;-79
2022/04/28 04:13:45;;;;;;;21.30;9.70;;;3.40;99.90;;;;;;5083192;28;20282;-78
2022/04/28 04:16:12;;;;;;;23.30;8.90;;;3.40;99.90;;;;;;5086734;28;20296;-78
2022/04/28 04:18:39;;;;;;;20.20;9.73;;;3.40;99.90;;;;;;5086702;28;20215;-77
2022/04/28 04:21:06;;;;;;;21.57;10.10;;;3.40;99.90;;;;;;5086336;28;20277;-78
2022/04/28 04:23:33;;;;;;;25.30;10.67;;;3.40;99.90;;;;;;5084253;28;20269;-79
2022/04/28 04:26:03;;;;;;;23.60;9.63;;;3.40;99.90;;;;;;5086285;28;20257;-78
2022/04/28 04:28:33;;;;;;;22.00;10.47;;;3.40;99.90;;;;;;5082036;28;20202;-80
2022/04/28 04:33:45;;;;;;;20.13;10.00;;;3.40;99.90;;;;;;5078222;28;20203;-78
2022/04/28 04:36:12;;;;;;;24.67;10.60;;;3.40;99.90;;;;;;5084631;28;20647;-79
2022/04/28 04:38:39;;;;;;;20.93;9.50;;;3.40;99.90;;;;;;5085112;28;20227;-79
2022/04/28 04:41:10;;;;;;;22.47;9.93;;;3.40;99.90;;;;;;5084254;28;20611;-78
2022/04/28 04:43:38;;;;;;;24.43;10.60;;;3.50;99.90;;;;;;5067843;28;20316;-80
2022/04/28 04:46:05;;;;;;;21.60;10.23;;;3.50;99.90;;;;;;5083301;28;20282;-80
2022/04/28 04:48:37;;;;;;;23.87;10.57;;;3.50;99.90;;;;;;5084719;28;20208;-78
2022/04/28 04:51:03;;;;;;;25.20;10.20;;;3.50;99.90;;;;;;5078744;28;20231;-78
2022/04/28 04:53:30;;;;;;;20.13;9.73;;;3.50;99.90;;;;;;5077721;28;20281;-79
2022/04/28 04:55:57;;;;;;;23.17;9.80;;;3.60;99.90;;;;;;5081620;28;20667;-78
2022/04/28 04:58:24;;;;;;;16.13;9.13;;;3.70;99.90;;;;;;5080540;28;20235;-78
2022/04/28 05:00:52;;;;;;;17.17;8.53;;;3.60;99.90;;;;;;5087903;28;20204;-79
2022/04/28 05:03:20;;;;;;;22.17;10.80;;;3.70;99.90;;;;;;5095692;28;20207;-79
2022/04/28 05:05:46;;;;;;;18.80;9.80;;;3.70;99.90;;;;;;5092515;28;20261;-80
2022/04/28 05:08:14;;;;;;;26.43;10.17;;;3.60;99.90;;;;;;5086041;28;20215;-79
2022/04/28 05:10:41;;;;;;;19.73;10.53;;;3.60;99.90;;;;;;5088042;28;20208;-79
2022/04/28 05:13:08;;;;;;;22.97;10.10;;;3.80;99.90;;;;;;5091453;28;20235;-79
2022/04/28 05:15:35;;;;;;;22.37;10.63;;;3.70;99.90;;;;;;5090483;28;20196;-79
2022/04/28 05:18:03;;;;;;;25.50;10.50;;;3.80;99.90;;;;;;5086535;28;20279;-79
2022/04/28 05:20:29;;;;;;;20.70;10.13;;;4.00;99.90;;;;;;5078330;28;20233;-78
2022/04/28 05:22:56;;;;;;;25.43;10.97;;;3.90;99.90;;;;;;5086380;28;20277;-79
2022/04/28 05:25:23;;;;;;;22.37;10.07;;;4.10;99.90;;;;;;5084017;28;20203;-79
2022/04/28 05:27:50;;;;;;;20.80;10.73;;;4.40;99.90;;;;;;5085177;28;20207;-79
2022/04/28 05:30:17;;;;;;;19.80;10.60;;;4.30;99.90;;;;;;5078562;28;20244;-79
2022/04/28 05:32:44;;;;;;;19.33;10.03;;;4.40;99.90;;;;;;5079976;28;20808;-78
2022/04/28 05:35:11;;;;;;;20.70;10.53;;;4.50;99.90;;;;;;5080482;28;20296;-79
2022/04/28 05:37:39;;;;;;;25.53;11.60;;;4.60;99.90;;;;;;5085145;28;20204;-78
2022/04/28 05:40:08;;;;;;;24.20;10.50;;;4.60;99.90;;;;;;5082017;28;20193;-77
2022/04/28 05:48:07;;;;;;;19.57;9.33;;;4.80;99.90;;;;;;5087105;28;20206;-79
2022/04/28 05:50:35;;;;;;;27.23;10.50;;;5.00;99.90;;;;;;5090132;28;20234;-79
2022/04/28 05:53:01;;;;;;;25.30;10.93;;;5.20;99.90;;;;;;5088694;28;20215;-79
2022/04/28 05:55:28;;;;;;;27.77;10.63;;;5.20;99.90;;;;;;5089818;28;20196;-78
2022/04/28 05:57:59;;;;;;;22.10;9.87;;;5.40;99.90;;;;;;5088221;28;20230;-79
2022/04/28 06:00:27;;;;;;;21.43;10.93;;;5.50;99.90;;;;;;5093224;28;20200;-79
2022/04/28 06:02:54;;;;;;;20.83;10.50;;;5.60;99.90;;;;;;5088506;28;20204;-80
2022/04/28 06:05:22;;;;;;;21.87;9.27;;;6.20;99.90;;;;;;5072008;28;20225;-80
2022/04/28 06:07:49;;;;;;;18.90;8.60;;;7.00;99.90;;;;;;5088413;28;20273;-80
2022/04/28 06:10:17;;;;;;;16.93;8.57;;;8.20;99.90;;;;;;5087241;28;20206;-80
2022/04/28 06:12:44;;;;;;;15.87;8.00;;;9.50;99.90;;;;;;5072584;28;20214;-82
2022/04/28 06:15:12;;;;;;;17.17;7.50;;;10.80;99.90;;;;;;5084857;28;20720;-80
2022/04/28 06:17:38;;;;;;;15.50;7.57;;;11.80;99.90;;;;;;5090640;28;20964;-81
2022/04/28 06:20:07;;;;;;;16.43;8.03;;;13.60;99.90;;;;;;5084510;28;20298;-81
2022/04/28 06:22:43;;;;;;;16.80;6.97;;;14.00;99.90;;;;;;5089405;28;20226;-80
2022/04/28 06:25:10;;;;;;;12.33;6.80;;;14.80;99.90;;;;;;5080479;28;20235;-82
2022/04/28 06:27:38;;;;;;;9.32;6.72;;;15.50;99.90;;;;;;5090040;28;20238;-81
2022/04/28 06:30:06;;;;;;;10.85;7.00;;;16.20;99.90;;;;;;5090908;28;20204;-82
2022/04/28 06:32:33;;;;;;;13.35;6.55;;;16.90;99.90;;;;;;5090567;28;20207;-81
2022/04/28 06:35:00;;;;;;;10.70;6.60;;;17.20;99.90;;;;;;5090787;28;20200;-84
2022/04/28 06:37:27;;;;;;;8.48;6.35;;;16.80;99.90;;;;;;5089402;28;20247;-81
2022/04/28 06:39:54;;;;;;;8.27;5.82;;;18.50;99.90;;;;;;5067811;28;20199;-80
2022/04/28 06:42:21;;;;;;;10.13;6.07;;;18.50;99.90;;;;;;5083208;28;20236;-81
2022/04/28 06:44:48;;;;;;;6.82;5.68;;;18.40;99.90;;;;;;5090349;28;20211;-81
2022/04/28 06:47:14;;;;;;;12.75;5.40;;;19.20;99.10;;;;;;5090384;28;20239;-82
2022/04/28 06:49:41;;;;;;;10.25;5.47;;;19.40;97.90;;;;;;5090462;28;20203;-81
2022/04/28 06:52:08;;;;;;;8.30;5.13;;;19.00;96.30;;;;;;5091014;28;20644;-80
2022/04/28 06:54:35;;;;;;;12.38;5.32;;;19.00;95.60;;;;;;5088264;28;20644;-81
2022/04/28 06:57:03;;;;;;;13.27;5.90;;;19.10;94.70;;;;;;5087498;28;20205;-80
2022/04/28 06:59:30;;;;;;;11.82;5.70;;;19.00;94.10;;;;;;5089150;28;20217;-81
2022/04/28 07:01:57;;;;;;;8.57;5.20;;;18.80;93.30;;;;;;5089456;28;20220;-82
2022/04/28 07:04:24;;;;;;;12.63;5.90;;;19.20;93.30;;;;;;5071063;28;20572;-81
2022/04/28 07:06:51;;;;;;;7.38;5.38;;;19.30;92.80;;;;;;5070704;28;20227;-81
2022/04/28 07:09:18;;;;;;;7.88;5.35;;;19.50;92.10;;;;;;5087237;28;20526;-81
2022/04/28 07:11:46;;;;;;;10.05;5.00;;;19.50;91.60;;;;;;5087142;28;20293;-80
2022/04/28 07:14:14;;;;;;;8.95;5.20;;;20.00;91.10;;;;;;5089123;28;20243;-80
2022/04/28 07:16:40;;;;;;;10.88;5.53;;;19.80;91.00;;;;;;5084404;28;20214;-80
2022/04/28 07:19:08;;;;;;;10.60;5.32;;;20.20;90.80;;;;;;5072326;28;20566;-81
2022/04/28 07:21:35;;;;;;;8.70;5.30;;;19.70;90.90;;;;;;5066660;28;20254;-80
2022/04/28 07:24:02;;;;;;;5.95;4.93;;;20.20;90.90;;;;;;5074476;28;20203;-83
2022/04/28 07:26:29;;;;;;;8.98;5.13;;;19.90;92.80;;;;;;5060379;28;20572;-81
2022/04/28 07:28:56;;;;;;;10.23;4.88;;;20.00;92.80;;;;;;5088256;28;20253;-81
2022/04/28 07:31:23;;;;;;;10.02;4.68;;;21.40;91.40;;;;;;5089648;28;20219;-81
2022/04/28 07:33:51;;;;;;;6.05;4.22;;;20.60;95.70;;;;;;5086562;28;20222;-81
2022/04/28 07:36:18;;;;;;;8.88;4.28;;;20.30;95.00;;;;;;5088926;28;20204;-82
2022/04/28 07:38:44;;;;;;;8.88;4.55;;;20.40;95.40;;;;;;5086046;28;20552;-81
2022/04/28 07:41:14;;;;;;;9.75;4.47;;;20.20;94.50;;;;;;5086359;28;20291;-81
2022/04/28 07:43:41;;;;;;;7.65;4.03;;;20.00;90.20;;;;;;5081885;28;20688;-80
2022/04/28 07:46:10;;;;;;;6.18;3.95;;;20.10;91.10;;;;;;5063576;28;20652;-80
2022/04/28 07:48:37;;;;;;;9.45;3.80;;;20.30;88.80;;;;;;5089323;28;20240;-83
2022/04/28 07:51:04;;;;;;;8.90;4.47;;;20.90;87.90;;;;;;5074909;28;20192;-82
2022/04/28 07:53:32;;;;;;;9.38;3.85;;;20.60;86.90;;;;;;5087763;28;20251;-82
2022/04/28 07:56:15;;;;;;;6.20;3.80;;;20.50;86.10;;;;;;5090151;28;20784;-81
2022/04/28 07:58:42;;;;;;;9.38;4.00;;;19.90;83.30;;;;;;5087766;28;20240;-80
2022/04/28 08:01:11;;;;;;;9.02;3.97;;;20.20;83.70;;;;;;5086236;28;20203;-83
2022/04/28 08:03:41;;;;;;;6.15;3.25;;;20.20;83.70;;;;;;5074206;28;20588;-81
2022/04/28 08:06:13;;;;;;;7.43;3.85;;;21.50;82.70;;;;;;5091571;28;20202;-81
2022/04/28 08:08:42;;;;;;;8.00;3.92;;;20.40;84.40;;;;;;5071987;28;20195;-81
2022/04/28 08:11:10;;;;;;;9.52;4.22;;;19.80;80.90;;;;;;5067508;28;20682;-80
2022/04/28 08:13:36;;;;;;;4.68;4.00;;;19.40;81.70;;;;;;5086580;28;20200;-81
2022/04/28 08:16:04;;;;;;;7.97;3.83;;;19.10;82.00;;;;;;5084572;28;20680;-80
2022/04/28 08:18:31;;;;;;;8.32;4.18;;;18.70;82.30;;;;;;5090800;28;20195;-82
2022/04/28 08:21:00;;;;;;;7.32;4.53;;;17.90;83.90;;;;;;5087913;28;20212;-80
2022/04/28 08:23:28;;;;;;;8.50;4.38;;;17.50;84.30;;;;;;5089324;28;20243;-81
2022/04/28 08:25:55;;;;;;;9.70;4.25;;;17.30;86.00;;;;;;5090880;28;20550;-81
2022/04/28 08:28:22;;;;;;;9.65;4.50;;;17.20;86.40;;;;;;5072276;28;20219;-81
2022/04/28 08:30:49;;;;;;;9.07;4.43;;;17.10;87.60;;;;;;5090999;28;20238;-80
2022/04/28 08:33:16;;;;;;;10.48;4.15;;;17.50;85.90;;;;;;5091772;28;20231;-80
2022/04/28 08:35:43;;;;;;;8.48;4.07;;;18.10;85.70;;;;;;5090046;28;20236;-81
2022/04/28 08:38:10;;;;;;;7.30;3.67;;;18.30;85.20;;;;;;5093184;28;20220;-81
2022/04/28 08:40:37;;;;;;;9.75;4.03;;;18.70;84.80;;;;;;5089860;28;20633;-81
2022/04/28 08:43:05;;;;;;;9.35;4.25;;;18.70;83.00;;;;;;5088842;28;20623;-81
2022/04/28 08:45:38;;;;;;;7.82;3.95;;;18.70;82.90;;;;;;5088868;28;20652;-82
2022/04/28 08:48:09;;;;;;;8.95;4.15;;;18.70;82.60;;;;;;5088683;28;20587;-82
2022/04/28 08:50:39;;;;;;;8.07;4.32;;;18.60;82.50;;;;;;5056394;28;20200;-82
2022/04/28 08:53:06;;;;;;;9.43;4.57;;;18.30;83.90;;;;;;5067797;28;20278;-83
2022/04/28 08:55:33;;;;;;;8.95;4.53;;;18.10;84.40;;;;;;5066298;28;20200;-80
2022/04/28 08:58:00;;;;;;;8.10;4.45;;;17.70;84.50;;;;;;5064760;28;20267;-81
2022/04/28 09:00:27;;;;;;;10.05;4.15;;;17.50;85.00;;;;;;5050268;28;20235;-81
2022/04/28 09:03:00;;;;;;;5.70;3.80;;;18.10;86.20;;;;;;5065857;28;20208;-80
2022/04/28 09:05:32;;;;;;;9.77;4.38;;;17.10;85.50;;;;;;5065920;28;20283;-82
2022/04/28 09:08:00;;;;;;;7.28;4.03;;;16.90;85.50;;;;;;5060460;28;20241;-82
2022/04/28 09:10:32;;;;;;;6.70;4.45;;;16.70;86.70;;;;;;5064433;28;20303;-85
2022/04/28 09:14:09;;;;;;;8.00;4.28;;;16.80;87.40;;;;;;5046696;28;20212;-84
2022/04/28 09:15:50;;;;;;;5.05;4.05;;;17.00;88.00;;;;;;5069760;28;20570;-84
2022/04/28 09:18:19;;;;;;;6.65;4.10;;;17.20;87.60;;;;;;5048436;28;20205;-85
2022/04/28 09:20:47;;;;;;;9.05;4.22;;;17.40;87.20;;;;;;5066387;28;20197;-85
2022/04/28 09:23:15;;;;;;;7.28;4.72;;;17.60;87.90;;;;;;5065370;28;20311;-85
2022/04/28 09:25:42;;;;;;;11.35;4.78;;;17.70;86.20;;;;;;5047709;28;20205;-83
2022/04/28 09:28:10;;;;;;;7.43;4.30;;;17.50;85.20;;;;;;5049598;28;20704;-83
2022/04/28 09:30:48;;;;;;;9.43;4.55;;;17.40;87.40;;;;;;5049891;28;20258;-84
2022/04/28 09:33:17;;;;;;;8.95;4.40;;;17.60;88.90;;;;;;5065534;28;20218;-84
2022/04/28 09:35:50;;;;;;;7.05;4.65;;;17.90;87.10;;;;;;5050220;28;20568;-84
2022/04/28 09:38:18;;;;;;;8.00;4.45;;;18.10;86.10;;;;;;5047005;28;20670;-87
2022/04/28 09:43:56;;;;;;;9.77;5.00;;;17.60;86.20;;;;;;5067958;28;20228;-84
2022/04/28 09:46:31;;;;;;;6.50;4.57;;;17.50;86.20;;;;;;5056668;28;20222;-84
2022/04/28 09:48:59;;;;;;;12.65;4.68;;;17.50;86.90;;;;;;5070320;28;20243;-85
2022/04/28 09:51:29;;;;;;;7.10;4.95;;;17.60;86.60;;;;;;5065823;28;20282;-84
2022/04/28 09:53:58;;;;;;;7.15;5.00;;;17.50;86.30;;;;;;5062355;28;20687;-84
2022/04/28 09:56:26;;;;;;;12.00;4.68;;;17.20;86.60;;;;;;5071213;28;20248;-84
2022/04/28 09:59:05;;;;;;;7.07;5.18;;;17.10;87.50;;;;;;5064861;28;20204;-86
2022/04/28 10:01:33;;;;;;;10.15;4.82;;;17.10;88.50;;;;;;5056810;28;20213;-84
2022/04/28 10:04:01;;;;;;;9.75;5.75;;;17.10;89.70;;;;;;5065798;28;20568;-83
2022/04/28 10:06:30;;;;;;;10.65;5.18;;;17.10;89.70;;;;;;5048335;28;20261;-84
2022/04/28 10:09:00;;;;;;;15.50;6.22;;;17.30;89.10;;;;;;5060151;28;20221;-85
2022/04/28 10:11:27;;;;;;;9.25;5.05;;;17.50;88.60;;;;;;5046564;28;20742;-85
2022/04/28 10:13:56;;;;;;;11.13;4.85;;;17.50;88.80;;;;;;5062689;28;20661;-83
2022/04/28 10:16:24;;;;;;;6.32;5.05;;;17.30;87.40;;;;;;5066044;28;20546;-84
2022/04/28 10:19:19;;;;;;;8.50;5.20;;;17.30;87.50;;;;;;5063243;28;20193;-84
2022/04/28 10:22:07;;;;;;;8.02;4.93;;;17.30;88.00;;;;;;5063891;28;20325;-85
2022/04/28 10:33:19;;;;;;;8.35;5.10;;;17.50;89.70;;;;;;5068514;28;20296;-85
2022/04/28 10:35:54;;;;;;;10.25;6.13;;;17.60;89.90;;;;;;5051096;28;20317;-84
2022/04/28 10:38:22;;;;;;;12.90;5.32;;;17.70;89.50;;;;;;5065326;28;20212;-86
2022/04/28 10:40:59;;;;;;;14.35;5.97;;;17.80;89.90;;;;;;5064657;28;20213;-84
2022/04/28 10:43:35;;;;;;;12.18;5.55;;;17.80;88.90;;;;;;5066000;28;20298;-84
2022/04/28 10:46:09;;;;;;;9.27;5.80;;;17.80;88.50;;;;;;5047970;28;20200;-87
2022/04/28 10:48:42;;;;;;;9.35;5.22;;;17.60;89.20;;;;;;5072327;28;20297;-86
2022/04/28 10:51:13;;;;;;;13.25;6.25;;;17.30;89.60;;;;;;5044776;28;20290;-85
2022/04/28 10:53:58;;;;;;;15.35;5.95;;;17.30;89.90;;;;;;5065764;28;20200;-85
2022/04/28 10:56:28;;;;;;;14.18;5.85;;;17.30;89.20;;;;;;5065725;28;20204;-78
2022/04/28 10:58:59;;;;;;;10.73;6.60;;;17.40;89.60;;;;;;5061901;28;20528;-82
2022/04/28 11:01:27;;;;;;;10.45;6.57;;;17.90;88.60;;;;;;5067041;28;20208;-82
2022/04/28 11:03:57;;;;;;;9.65;5.93;;;17.70;88.70;;;;;;5065091;28;20193;-82
2022/04/28 11:06:34;;;;;;;8.48;5.80;;;17.70;89.00;;;;;;5069163;28;20208;-82
2022/04/28 11:09:03;;;;;;;10.05;6.15;;;17.70;89.30;;;;;;5045745;28;20657;-84
2022/04/28 11:11:47;;;;;;;11.67;6.33;;;17.10;88.50;;;;;;5062890;28;20201;-82
2022/04/28 11:14:15;;;;;;;7.03;5.70;;;17.60;89.50;;;;;;5063615;28;20258;-82
2022/04/28 11:16:44;;;;;;;10.60;5.25;;;17.60;89.50;;;;;;5052021;28;20196;-81
2022/04/28 11:19:12;;;;;;;11.88;6.80;;;17.70;89.60;;;;;;5070992;28;20239;-82
2022/04/28 11:21:39;;;;;;;11.80;6.60;;;17.80;88.90;;;;;;5057526;28;20649;-82
2022/04/28 11:24:06;;;;;;;12.63;7.50;;;17.80;90.10;;;;;;5070612;28;20201;-81
2022/04/28 11:26:36;;;;;;;13.57;6.82;;;17.70;90.00;;;;;;5069778;28;20209;-82
2022/04/28 11:29:08;;;;;;;9.57;6.50;;;17.90;89.90;;;;;;5049682;28;20236;-82
2022/04/28 11:31:43;;;;;;;13.43;6.40;;;17.90;89.40;;;;;;5069290;28;20857;-83
2022/04/28 11:34:10;;;;;;;12.07;7.03;;;17.80;90.00;;;;;;5066644;28;20235;-83
2022/04/28 11:36:41;;;;;;;13.67;6.37;;;17.80;89.90;;;;;;5065273;28;20323;-82
2022/04/28 11:39:09;;;;;;;10.32;6.43;;;17.80;90.20;;;;;;5068626;28;20201;-84
2022/04/28 11:41:43;;;;;;;8.95;6.90;;;18.00;90.50;;;;;;5050464;28;20205;-84
2022/04/28 11:44:16;;;;;;;9.80;6.68;;;18.10;90.60;;;;;;5046508;28;20247;-81
2022/04/28 11:46:51;;;;;;;11.82;6.30;;;18.10;90.10;;;;;;5048702;28;20216;-81
2022/04/28 11:49:19;;;;;;;10.33;7.20;;;18.00;89.80;;;;;;5066256;28;20232;-81
2022/04/28 11:51:46;;;;;;;11.02;7.28;;;17.80;90.30;;;;;;5050524;28;20244;-82
2022/04/28 11:54:23;;;;;;;11.88;6.75;;;17.90;90.30;;;;;;5042723;28;20213;-82
2022/04/28 11:56:50;;;;;;;10.73;6.40;;;18.00;90.00;;;;;;5065526;28;20683;-83
2022/04/28 11:59:17;;;;;;;11.77;7.00;;;17.90;89.90;;;;;;5049123;28;20212;-83
2022/04/28 12:01:44;;;;;;;9.27;6.47;;;18.00;90.70;;;;;;5046631;28;20325;-82
2022/04/28 12:04:16;;;;;;;10.77;6.67;;;18.20;90.30;;;;;;5067350;28;20208;-82
2022/04/28 12:06:46;;;;;;;10.25;5.95;;;18.00;90.20;;;;;;5066480;28;20734;-84
2022/04/28 12:14:47;;;;;;;12.10;6.10;;;18.60;90.80;;;;;;5059970;28;20208;-82
2022/04/28 12:20:01;;;;;;;10.15;6.07;;;19.00;90.00;;;;;;5066965;28;20792;-82
2022/04/28 12:22:33;;;;;;;10.75;6.22;;;19.20;90.10;;;;;;5064358;28;20270;-83
2022/04/28 12:25:18;;;;;;;9.57;5.95;;;19.30;89.30;;;;;;5063073;28;20639;-82
2022/04/28 12:27:52;;;;;;;13.68;6.60;;;19.20;89.70;;;;;;5061153;28;20718;-81
2022/04/28 12:30:19;;;;;;;12.40;6.40;;;19.20;89.60;;;;;;5048777;28;20529;-81
2022/04/28 12:32:52;;;;;;;8.30;6.05;;;19.20;89.50;;;;;;5064169;28;20684;-82
2022/04/28 12:35:22;;;;;;;12.45;6.47;;;19.20;89.40;;;;;;5048676;28;20205;-82
2022/04/28 12:37:54;;;;;;;9.63;5.93;;;19.30;89.30;;;;;;5067285;28;20565;-83
2022/04/28 12:40:21;;;;;;;9.18;5.90;;;19.20;89.40;;;;;;5061085;28;20200;-82
2022/04/28 12:42:50;;;;;;;9.60;6.30;;;19.00;89.40;;;;;;5065263;28;21097;-81
2022/04/28 12:45:40;;;;;;;10.90;6.32;;;19.00;89.70;;;;;;5049754;28;20212;-82
2022/04/28 12:48:25;;;;;;;8.45;5.53;;;18.90;89.90;;;;;;5066625;28;20224;-85
2022/04/28 12:51:11;;;;;;;12.90;6.05;;;18.80;90.10;;;;;;5046835;28;20231;-83
2022/04/28 12:53:41;;;;;;;9.90;6.03;;;18.60;89.40;;;;;;5036977;28;20618;-80
2022/04/28 12:56:13;;;;;;;10.45;6.20;;;18.40;90.20;;;;;;5041459;28;20213;-83
2022/04/28 12:58:48;;;;;;;10.43;6.28;;;18.30;90.60;;;;;;5046093;28;20212;-80
2022/04/28 13:01:18;;;;;;;8.13;5.47;;;18.40;91.00;;;;;;5049802;28;20296;-80
2022/04/28 13:03:55;;;;;;;11.38;5.90;;;18.60;91.30;;;;;;5064818;28;20212;-80
2022/04/28 13:06:27;;;;;;;13.43;6.03;;;18.50;91.30;;;;;;5063852;28;20298;-81
2022/04/28 13:08:55;;;;;;;9.88;5.82;;;18.70;91.40;;;;;;5062622;28;20652;-81
2022/04/28 13:11:25;;;;;;;12.70;6.20;;;18.80;91.00;;;;;;5063493;28;20209;-81
2022/04/28 13:13:53;;;;;;;8.15;5.70;;;18.80;90.80;;;;;;5059242;28;20254;-79
2022/04/28 13:16:20;;;;;;;9.93;5.32;;;18.90;90.70;;;;;;5066720;28;20262;-80
2022/04/28 13:18:48;;;;;;;10.00;5.97;;;19.00;90.70;;;;;;5063554;28;20622;-80
2022/04/28 13:21:15;;;;;;;12.38;5.90;;;19.30;90.70;;;;;;5065361;28;20293;-79
2022/04/28 13:23:44;;;;;;;9.13;5.93;;;19.20;90.60;;;;;;5064359;28;20290;-79
2022/04/28 13:26:13;;;;;;;8.20;4.82;;;19.30;90.30;;;;;;5064126;28;20621;-77
2022/04/28 13:28:40;;;;;;;7.50;4.93;;;19.40;90.00;;;;;;5063603;28;20473;-77
2022/04/28 13:31:07;;;;;;;8.23;6.10;;;19.50;89.70;;;;;;5065887;28;20220;-77
2022/04/28 13:33:34;;;;;;;8.23;5.00;;;19.50;88.90;;;;;;5064792;28;20619;-79
2022/04/28 13:36:02;;;;;;;6.50;4.55;;;19.60;88.40;;;;;;5043979;28;20193;-76